Time;durP1;ratioP1;P1;durP2;ratioP2;P2;SDS_P1;SDS_P2;PMS_P1;PMS_P2;Temp;Humidity;BMP_temperature;BMP_pressure;BME280_temperature;BME280_humidity;BME280_pressure;Samples;Min_cycle;Max_cycle;Signal;HPM_P1;HPM_P2
2021/09/04 00:02:16;;;;;;;1999.90;999.90;;;18.70;99.90;;;;;;5013201;28;20507;-90
2021/09/04 00:04:53;;;;;;;1999.90;999.90;;;18.70;99.90;;;;;;5012823;28;20173;-90
2021/09/04 00:07:20;;;;;;;1999.90;999.90;;;18.70;99.90;;;;;;5014050;28;20542;-90
2021/09/04 00:09:46;;;;;;;1999.90;999.90;;;18.60;99.90;;;;;;5014092;28;20455;-89
2021/09/04 00:12:11;;;;;;;1999.90;999.90;;;18.60;99.90;;;;;;5013943;28;20757;-90
2021/09/04 00:14:37;;;;;;;1999.90;999.90;;;18.60;99.90;;;;;;5013298;28;20177;-90
2021/09/04 00:17:04;;;;;;;1999.90;999.90;;;18.60;99.90;;;;;;5013362;28;20519;-90
2021/09/04 00:19:32;;;;;;;1999.90;999.90;;;18.50;99.90;;;;;;5014163;28;20407;-90
2021/09/04 00:22:06;;;;;;;1999.90;999.90;;;18.50;99.90;;;;;;5012897;28;20423;-90
2021/09/04 00:24:32;;;;;;;1999.90;999.90;;;18.50;99.90;;;;;;5014448;28;20400;-90
2021/09/04 00:26:58;;;;;;;1999.90;999.90;;;18.40;99.90;;;;;;5013764;28;20796;-90
2021/09/04 00:29:27;;;;;;;1999.90;999.90;;;18.40;99.90;;;;;;5012660;28;20465;-90
2021/09/04 00:31:56;;;;;;;1999.90;999.90;;;18.30;99.90;;;;;;5012413;28;20412;-90
2021/09/04 00:34:24;;;;;;;1999.90;999.90;;;18.30;99.90;;;;;;5012409;28;20415;-90
2021/09/04 00:36:53;;;;;;;1999.90;999.90;;;18.30;99.90;;;;;;5013571;28;20552;-90
2021/09/04 00:39:19;;;;;;;1999.90;999.90;;;18.30;99.90;;;;;;5013540;28;20512;-90
2021/09/04 00:41:46;;;;;;;1999.90;999.90;;;18.30;99.90;;;;;;5013061;28;20876;-90
2021/09/04 00:44:22;;;;;;;1999.90;999.90;;;18.20;99.90;;;;;;5013653;28;20213;-90
2021/09/04 00:46:49;;;;;;;1999.90;999.90;;;18.20;99.90;;;;;;5012603;28;20440;-89
2021/09/04 00:49:17;;;;;;;1999.90;999.90;;;18.20;99.90;;;;;;5013671;28;20519;-89
2021/09/04 00:51:45;;;;;;;1999.90;999.90;;;18.20;99.90;;;;;;5012216;28;20409;-89
2021/09/04 00:54:16;;;;;;;1999.90;999.90;;;18.10;99.90;;;;;;5013234;28;20417;-90
2021/09/04 00:56:43;;;;;;;1999.90;999.90;;;18.10;99.90;;;;;;5013636;28;20911;-90
2021/09/04 00:59:10;;;;;;;1999.90;999.90;;;18.10;99.90;;;;;;5013344;28;20555;-90
2021/09/04 01:01:36;;;;;;;1999.90;999.90;;;18.10;99.90;;;;;;5012481;28;20409;-90
2021/09/04 01:04:06;;;;;;;1999.90;999.90;;;18.00;99.90;;;;;;5013324;28;20413;-90
2021/09/04 01:06:53;;;;;;;1999.90;999.90;;;18.00;99.90;;;;;;5012203;28;20429;-90
2021/09/04 01:09:27;;;;;;;1999.90;999.90;;;18.00;99.90;;;;;;5013405;28;20456;-90
2021/09/04 01:11:53;;;;;;;1999.90;999.90;;;17.90;99.90;;;;;;5012619;28;20401;-90
2021/09/04 01:14:21;;;;;;;1999.90;999.90;;;17.90;99.90;;;;;;5011935;28;20440;-90
2021/09/04 01:16:50;;;;;;;1999.90;999.90;;;17.90;99.90;;;;;;5011927;28;20225;-89
2021/09/04 01:19:18;;;;;;;1999.90;999.90;;;17.80;99.90;;;;;;5011921;28;20784;-89
2021/09/04 01:21:44;;;;;;;1999.90;999.90;;;17.90;99.90;;;;;;5011909;28;20459;-90
2021/09/04 01:24:10;;;;;;;1999.90;999.90;;;17.90;99.90;;;;;;5013408;28;20405;-90
2021/09/04 01:26:36;;;;;;;1999.90;999.90;;;17.80;99.90;;;;;;5013154;28;20186;-90
2021/09/04 01:29:05;;;;;;;1999.90;999.90;;;17.80;99.90;;;;;;5012920;28;20200;-90
2021/09/04 01:31:31;;;;;;;1999.90;999.90;;;17.80;99.90;;;;;;5012105;28;20428;-90
2021/09/04 01:33:57;;;;;;;1999.90;999.90;;;17.70;99.90;;;;;;5011796;28;20397;-89
2021/09/04 01:36:47;;;;;;;1999.90;999.90;;;17.70;99.90;;;;;;5011789;28;20420;-90
2021/09/04 01:39:13;;;;;;;1999.90;999.90;;;17.70;99.90;;;;;;5012018;28;20976;-90
2021/09/04 01:41:56;;;;;;;1999.90;999.90;;;17.70;99.90;;;;;;5011732;28;20500;-90
2021/09/04 01:44:22;;;;;;;1999.90;999.90;;;17.60;99.90;;;;;;5013318;28;20151;-89
2021/09/04 01:46:48;;;;;;;1999.90;999.90;;;17.60;99.90;;;;;;5011976;28;20447;-90
2021/09/04 01:49:23;;;;;;;1999.90;999.90;;;17.50;99.90;;;;;;5011704;28;20200;-90
2021/09/04 01:51:49;;;;;;;1999.90;999.90;;;17.50;99.90;;;;;;5013765;28;20687;-90
2021/09/04 01:54:18;;;;;;;1999.90;999.90;;;17.50;99.90;;;;;;5016180;28;20404;-90
2021/09/04 01:56:43;;;;;;;1999.90;999.90;;;17.50;99.90;;;;;;5016400;28;20455;-89
2021/09/04 01:59:09;;;;;;;1999.90;999.90;;;17.50;99.90;;;;;;5016339;28;20935;-90
2021/09/04 02:01:35;;;;;;;1999.90;999.90;;;17.50;99.90;;;;;;5016806;28;20573;-90
2021/09/04 02:04:01;;;;;;;1999.90;999.90;;;17.50;99.90;;;;;;5015209;28;20174;-90
2021/09/04 02:06:29;;;;;;;1999.90;999.90;;;17.50;99.90;;;;;;5016062;28;20243;-90
2021/09/04 02:08:58;;;;;;;1999.90;999.90;;;17.40;99.90;;;;;;5016297;28;20599;-90
2021/09/04 02:11:24;;;;;;;1999.90;999.90;;;17.40;99.90;;;;;;5016344;28;20393;-90
2021/09/04 02:13:53;;;;;;;1999.90;999.90;;;17.30;99.90;;;;;;5017377;28;20409;-90
2021/09/04 02:16:21;;;;;;;1999.90;999.90;;;17.30;99.90;;;;;;5014928;28;20197;-90
2021/09/04 02:18:50;;;;;;;1999.90;999.90;;;17.30;99.90;;;;;;5016380;28;20947;-90
2021/09/04 02:21:19;;;;;;;1999.90;999.90;;;17.30;99.90;;;;;;5016101;28;20404;-90
2021/09/04 02:23:47;;;;;;;1999.90;999.90;;;17.30;99.90;;;;;;5016037;28;20410;-90
2021/09/04 02:26:13;;;;;;;1999.90;999.90;;;17.30;99.90;;;;;;5015924;28;20432;-90
2021/09/04 02:28:39;;;;;;;1999.90;999.90;;;17.30;99.90;;;;;;5015943;28;20823;-90
2021/09/04 02:31:10;;;;;;;1999.90;999.90;;;17.20;99.90;;;;;;5015506;28;20174;-90
2021/09/04 02:33:36;;;;;;;1999.90;999.90;;;17.20;99.90;;;;;;5015402;28;20170;-90
2021/09/04 02:36:05;;;;;;;1999.90;999.90;;;17.20;99.90;;;;;;5014484;28;20612;-90
2021/09/04 02:38:30;;;;;;;1999.90;999.90;;;17.20;99.90;;;;;;5015747;28;20170;-90
2021/09/04 02:40:56;;;;;;;1999.90;999.90;;;17.20;99.90;;;;;;5014791;28;20935;-90
2021/09/04 02:43:25;;;;;;;1999.90;999.90;;;17.10;99.90;;;;;;5014730;28;20170;-90
2021/09/04 02:45:53;;;;;;;1999.90;999.90;;;17.10;99.90;;;;;;5015817;28;20218;-90
2021/09/04 02:48:22;;;;;;;1999.90;999.90;;;17.10;99.90;;;;;;5015513;28;20511;-90
2021/09/04 02:50:58;;;;;;;1999.90;999.90;;;17.10;99.90;;;;;;5015704;28;20495;-90
2021/09/04 02:53:31;;;;;;;1999.90;999.90;;;17.10;99.90;;;;;;5015103;28;20420;-90
2021/09/04 02:56:05;;;;;;;1999.90;999.90;;;17.00;99.90;;;;;;5014221;28;20532;-90
2021/09/04 02:58:41;;;;;;;1999.90;999.90;;;17.00;99.90;;;;;;5015401;28;20494;-90
2021/09/04 03:01:09;;;;;;;1999.90;999.90;;;17.00;99.90;;;;;;5014147;28;20415;-90
2021/09/04 03:03:37;;;;;;;1999.90;999.90;;;17.00;99.90;;;;;;5014383;28;20792;-90
2021/09/04 03:06:10;;;;;;;1999.90;999.90;;;17.00;99.90;;;;;;5015188;28;20435;-90
2021/09/04 03:08:36;;;;;;;1999.90;999.90;;;16.90;99.90;;;;;;5013899;28;20891;-90
2021/09/04 03:11:05;;;;;;;1999.90;999.90;;;16.90;99.90;;;;;;5015101;28;20433;-90
2021/09/04 03:13:31;;;;;;;1999.90;999.90;;;16.90;99.90;;;;;;5013781;28;20174;-90
2021/09/04 03:15:57;;;;;;;1999.90;999.90;;;16.80;99.90;;;;;;5015044;28;20923;-90
2021/09/04 03:18:29;;;;;;;1999.90;999.90;;;16.80;99.90;;;;;;5014549;28;20428;-90
2021/09/04 03:20:57;;;;;;;1999.90;999.90;;;16.80;99.90;;;;;;5015029;28;20155;-89
2021/09/04 03:23:23;;;;;;;1999.90;999.90;;;16.80;99.90;;;;;;5014513;28;20734;-90
2021/09/04 03:25:57;;;;;;;1999.90;999.90;;;16.80;99.90;;;;;;5014894;28;20440;-90
2021/09/04 03:28:35;;;;;;;1999.90;999.90;;;16.70;99.90;;;;;;5160090;22;20627;-85
2021/09/04 03:31:04;;;;;;;1999.90;999.90;;;16.70;99.90;;;;;;4995241;28;20426;-86
2021/09/04 03:33:59;;;;;;;1999.90;999.90;;;16.70;99.90;;;;;;4994917;28;20406;-86
2021/09/04 03:36:58;;;;;;;1999.90;999.90;;;16.60;99.90;;;;;;4995484;28;20496;-86
2021/09/04 03:39:29;;;;;;;1999.90;999.90;;;16.60;99.90;;;;;;4995660;28;20460;-86
2021/09/04 03:42:01;;;;;;;1999.90;999.90;;;16.60;99.90;;;;;;4994244;28;20496;-86
2021/09/04 03:44:38;;;;;;;1999.90;999.90;;;16.60;99.90;;;;;;4994706;28;20402;-86
2021/09/04 03:47:22;;;;;;;;;;;;;;;;;;;;;
2021/09/04 03:50:10;;;;;;;1999.90;999.90;;;16.60;99.90;;;;;;4995336;28;20805;-86
2021/09/04 03:52:59;;;;;;;1999.90;999.90;;;16.60;99.90;;;;;;4995064;28;20437;-86
2021/09/04 03:56:02;;;;;;;1999.90;999.90;;;16.50;99.90;;;;;;4995063;28;20476;-85
2021/09/04 03:58:38;;;;;;;1999.90;999.90;;;16.50;99.90;;;;;;5010607;28;20927;-86
2021/09/04 04:01:17;;;;;;;1999.90;999.90;;;16.50;99.90;;;;;;4994352;28;20416;-87
2021/09/04 04:03:54;;;;;;;1999.90;999.90;;;16.50;99.90;;;;;;4994689;28;20445;-86
2021/09/04 04:06:20;;;;;;;1999.90;999.90;;;16.50;99.90;;;;;;4996038;28;20436;-85
2021/09/04 04:09:02;;;;;;;1999.90;999.90;;;16.40;99.90;;;;;;4993430;28;20453;-86
2021/09/04 04:11:51;;;;;;;1999.90;999.90;;;16.40;99.90;;;;;;4994857;28;20173;-86
2021/09/04 04:14:31;;;;;;;1999.90;999.90;;;16.40;99.90;;;;;;4983644;28;20421;-86
2021/09/04 04:17:06;;;;;;;1999.90;999.90;;;16.30;99.90;;;;;;4993193;28;20504;-86
2021/09/04 04:19:56;;;;;;;1999.90;999.90;;;16.30;99.90;;;;;;5009515;28;20422;-86
2021/09/04 04:22:53;;;;;;;1999.90;999.90;;;16.30;99.90;;;;;;4993004;28;20414;-86
2021/09/04 04:25:59;;;;;;;1999.90;999.90;;;16.30;99.90;;;;;;4993270;28;20447;-86
2021/09/04 04:28:57;;;;;;;1999.90;999.90;;;16.20;99.90;;;;;;4981946;28;20453;-86
2021/09/04 04:31:38;;;;;;;1999.90;999.90;;;16.20;99.90;;;;;;4993378;28;20471;-86
2021/09/04 04:34:09;;;;;;;1999.90;999.90;;;16.20;99.90;;;;;;4994909;28;20384;-86
2021/09/04 04:36:44;;;;;;;1999.90;999.90;;;16.20;99.90;;;;;;4993751;28;20475;-85
2021/09/04 04:39:18;;;;;;;1999.90;999.90;;;16.10;99.90;;;;;;4993019;28;20414;-86
2021/09/04 04:42:02;;;;;;;1999.90;999.90;;;16.10;99.90;;;;;;4994634;28;20436;-86
2021/09/04 04:47:39;;;;;;;1999.90;999.90;;;16.10;99.90;;;;;;4983657;28;20433;-86
2021/09/04 04:50:26;;;;;;;1999.90;999.90;;;16.10;99.90;;;;;;4993655;28;20425;-86
2021/09/04 04:52:51;;;;;;;1999.90;999.90;;;16.00;99.90;;;;;;4994507;28;20446;-86
2021/09/04 04:55:20;;;;;;;1999.90;999.90;;;16.00;99.90;;;;;;4993241;28;20432;-86
2021/09/04 04:57:58;;;;;;;1999.90;999.90;;;16.00;99.90;;;;;;4992745;28;20197;-86
2021/09/04 05:00:45;;;;;;;1999.90;999.90;;;16.00;99.90;;;;;;4994192;28;20407;-86
2021/09/04 05:03:49;;;;;;;1999.90;999.90;;;16.00;99.90;;;;;;4994338;28;20409;-86
2021/09/04 05:06:24;;;;;;;1999.90;999.90;;;16.00;99.90;;;;;;4994123;28;20427;-86
2021/09/04 05:09:03;;;;;;;1999.90;999.90;;;15.90;99.90;;;;;;4979105;28;20555;-85
2021/09/04 05:11:32;;;;;;;1999.90;999.90;;;15.90;99.90;;;;;;4992921;28;20434;-86
2021/09/04 05:14:01;;;;;;;1999.90;999.90;;;15.90;99.90;;;;;;4992995;28;20443;-86
2021/09/04 05:16:34;;;;;;;1999.90;999.90;;;15.90;99.90;;;;;;4992892;28;20475;-86
2021/09/04 05:19:23;;;;;;;1999.90;999.90;;;15.90;99.90;;;;;;4992943;28;20427;-86
2021/09/04 05:22:12;;;;;;;1999.90;999.90;;;15.90;99.90;;;;;;4992541;28;20407;-86
2021/09/04 05:24:44;;;;;;;1999.90;999.90;;;15.90;99.90;;;;;;4992549;28;20509;-86
2021/09/04 05:28:33;;;;;;;;;;;;;;;;;;;;;
2021/09/04 05:34:43;;;;;;;1999.90;999.90;;;15.90;99.90;;;;;;4922184;29;20518;-86
2021/09/04 05:37:23;;;;;;;1999.90;999.90;;;15.90;99.90;;;;;;4918301;29;20446;-85
2021/09/04 05:43:21;;;;;;;;;;;;;;;;;;;;;
2021/09/04 05:46:57;;;;;;;1999.90;999.90;;;16.00;99.90;;;;;;4976802;28;20447;-85
2021/09/04 05:50:09;;;;;;;1999.90;999.90;;;16.00;99.90;;;;;;4979436;28;20501;-86
2021/09/04 05:55:46;;;;;;;1999.90;999.90;;;16.00;99.90;;;;;;4996928;28;20415;-86
2021/09/04 06:02:19;;;;;;;1999.90;999.90;;;16.10;99.90;;;;;;4955637;28;20439;-85
2021/09/04 06:08:07;;;;;;;1999.90;999.90;;;16.10;99.90;;;;;;4996433;28;20424;-86
2021/09/04 06:10:47;;;;;;;1999.90;999.90;;;16.20;99.90;;;;;;4995893;28;20775;-86
2021/09/04 06:14:17;;;;;;;;;;;;;;;;;;;;;
2021/09/04 06:17:29;;;;;;;1999.90;999.90;;;16.30;99.90;;;;;;4993055;28;20436;-85
2021/09/04 06:20:57;;;;;;;;;;;;;;;;;;;;;
2021/09/04 06:24:00;;;;;;;1999.90;999.90;;;16.20;99.90;;;;;;4996728;28;20422;-86
2021/09/04 06:30:24;;;;;;;1999.90;999.90;;;16.20;99.90;;;;;;4981669;28;20491;-86
2021/09/04 06:33:53;;;;;;;;;;;;;;;;;;;;;
2021/09/04 06:37:23;;;;;;;;;;;;;;;;;;;;;
2021/09/04 06:40:39;;;;;;;;;;;;;;;;;;;;;
2021/09/04 06:43:34;;;;;;;1999.90;999.90;;;16.40;99.90;;;;;;4993955;28;20949;-85
2021/09/04 06:46:50;;;;;;;1999.90;999.90;;;16.40;99.90;;;;;;4993503;28;20460;-87
2021/09/04 06:49:20;;;;;;;1999.90;999.90;;;16.40;99.90;;;;;;4995339;28;20460;-86
2021/09/04 06:51:45;;;;;;;1999.90;999.90;;;16.50;99.90;;;;;;4995266;28;20483;-85
2021/09/04 06:54:11;;;;;;;1999.90;999.90;;;16.40;99.90;;;;;;4996894;28;20416;-86
2021/09/04 06:56:37;;;;;;;1999.90;999.90;;;16.50;99.90;;;;;;4996965;28;20186;-86
2021/09/04 06:59:02;;;;;;;1999.90;999.90;;;16.50;99.90;;;;;;4996810;28;20618;-85
2021/09/04 07:01:28;;;;;;;1999.90;999.90;;;16.50;99.90;;;;;;4995649;28;20231;-86
2021/09/04 07:03:54;;;;;;;1999.90;999.90;;;16.60;99.90;;;;;;4995346;28;20180;-85
2021/09/04 07:06:19;;;;;;;1999.90;999.90;;;16.60;99.90;;;;;;4995412;28;20676;-86
2021/09/04 07:08:45;;;;;;;1999.90;999.90;;;16.60;99.90;;;;;;4996525;28;20202;-85
2021/09/04 07:11:11;;;;;;;1999.90;999.90;;;16.70;99.90;;;;;;4996205;28;20198;-85
2021/09/04 07:13:38;;;;;;;1999.90;999.90;;;16.70;99.90;;;;;;4995393;28;20190;-85
2021/09/04 07:16:04;;;;;;;1999.90;999.90;;;16.70;99.90;;;;;;4997130;28;20309;-85
2021/09/04 07:18:30;;;;;;;1999.90;999.90;;;16.80;99.90;;;;;;4997123;28;20765;-85
2021/09/04 07:20:55;;;;;;;1999.90;999.90;;;16.80;99.90;;;;;;4994496;28;20418;-85
2021/09/04 07:23:21;;;;;;;1999.90;999.90;;;16.80;99.90;;;;;;4995924;28;20433;-85
2021/09/04 07:25:47;;;;;;;1999.90;999.90;;;16.80;99.90;;;;;;4994345;28;20285;-85
2021/09/04 07:28:13;;;;;;;1999.90;999.90;;;16.80;99.90;;;;;;4996638;28;20194;-85
2021/09/04 07:30:39;;;;;;;1999.90;999.90;;;16.80;99.90;;;;;;4995357;28;20412;-85
2021/09/04 07:33:05;;;;;;;1999.90;999.90;;;16.90;99.90;;;;;;4994109;28;20948;-85
2021/09/04 07:35:31;;;;;;;1999.90;999.90;;;16.90;99.90;;;;;;4995527;28;20206;-85
2021/09/04 07:37:56;;;;;;;1999.90;999.90;;;16.90;99.90;;;;;;4993946;28;20225;-85
2021/09/04 07:40:23;;;;;;;1999.90;999.90;;;16.90;99.90;;;;;;4995132;28;20806;-85
2021/09/04 07:42:49;;;;;;;1999.90;999.90;;;16.90;99.90;;;;;;4994076;28;20166;-85
2021/09/04 07:45:15;;;;;;;1999.90;999.90;;;17.00;99.90;;;;;;4995292;28;20418;-85
2021/09/04 07:47:40;;;;;;;1999.90;999.90;;;17.10;99.90;;;;;;4995782;28;20425;-85
2021/09/04 07:50:07;;;;;;;1999.90;999.90;;;17.10;99.90;;;;;;4995579;28;20534;-86
2021/09/04 07:52:33;;;;;;;1999.90;999.90;;;17.10;99.90;;;;;;4995019;28;20187;-85
2021/09/04 07:54:58;;;;;;;1999.90;999.90;;;17.10;99.90;;;;;;4995209;28;20441;-85
2021/09/04 07:57:24;;;;;;;1999.90;999.90;;;17.10;99.90;;;;;;4993591;28;20675;-86
2021/09/04 07:59:50;;;;;;;1999.90;999.90;;;17.20;99.90;;;;;;4994091;28;20182;-85
2021/09/04 08:02:15;;;;;;;1999.90;999.90;;;17.20;99.90;;;;;;4993607;28;20673;-85
2021/09/04 08:04:41;;;;;;;1999.90;999.90;;;17.30;99.90;;;;;;4994718;28;20249;-85
2021/09/04 08:07:10;;;;;;;1999.90;999.90;;;17.30;99.90;;;;;;4995053;28;20625;-85
2021/09/04 08:09:36;;;;;;;1999.90;999.90;;;17.30;99.90;;;;;;4993713;28;20631;-86
2021/09/04 08:12:02;;;;;;;1999.90;999.90;;;17.40;99.90;;;;;;4993778;28;20501;-85
2021/09/04 08:14:27;;;;;;;1999.90;999.90;;;17.50;99.90;;;;;;4994730;28;20645;-86
2021/09/04 08:16:56;;;;;;;1999.90;999.90;;;17.60;99.90;;;;;;4994582;28;20441;-85
2021/09/04 08:19:21;;;;;;;1999.90;999.90;;;17.60;99.90;;;;;;4995043;28;20538;-86
2021/09/04 08:21:47;;;;;;;1999.90;999.90;;;17.70;99.90;;;;;;4994824;28;20405;-86
2021/09/04 08:24:13;;;;;;;1999.90;999.90;;;17.70;99.90;;;;;;4995959;28;20194;-86
2021/09/04 08:26:43;;;;;;;1999.90;999.90;;;17.80;99.90;;;;;;4995387;28;20608;-86
2021/09/04 08:29:11;;;;;;;1999.90;999.90;;;17.90;99.90;;;;;;4994585;28;20669;-86
2021/09/04 08:31:40;;;;;;;1999.90;999.90;;;17.90;99.90;;;;;;4993404;28;20406;-86
2021/09/04 08:34:06;;;;;;;1999.90;999.90;;;17.90;99.90;;;;;;4994750;28;20982;-87
2021/09/04 08:40:38;;;;;;;1999.90;999.90;;;18.00;99.90;;;;;;4934624;29;20172;-86
2021/09/04 08:43:38;;;;;;;1999.90;999.90;;;18.10;99.90;;;;;;4896765;29;20501;-86
2021/09/04 08:46:47;;;;;;;1999.90;999.90;;;18.20;99.90;;;;;;4879299;29;20931;-87
2021/09/04 08:50:04;;;;;;;1999.90;999.90;;;18.30;99.90;;;;;;4927911;29;20452;-86
2021/09/04 09:01:58;;;;;;;1999.90;999.90;;;18.50;99.90;;;;;;5015834;28;20468;-84
2021/09/04 09:08:15;;;;;;;;;;;;;;;;;;;;;
2021/09/04 09:11:36;;;;;;;1999.90;999.90;;;18.80;99.90;;;;;;4954200;29;20396;-85
2021/09/04 09:14:53;;;;;;;1999.90;999.90;;;19.00;99.90;;;;;;5009286;28;20406;-84
2021/09/04 09:21:16;;;;;;;1999.90;999.90;;;19.10;99.90;;;;;;5014583;28;20405;-84
2021/09/04 09:24:05;;;;;;;1999.90;999.90;;;19.30;99.90;;;;;;5013661;28;20393;-84
2021/09/04 09:26:53;;;;;;;1999.90;999.90;;;19.40;99.90;;;;;;5013630;28;20528;-84
2021/09/04 09:29:24;;;;;;;1999.90;999.90;;;19.40;99.90;;;;;;5090597;22;20488;-82
2021/09/04 09:32:09;;;;;;;1999.90;999.90;;;19.60;99.90;;;;;;5013925;28;20765;-82
2021/09/04 09:34:36;;;;;;;1999.90;999.90;;;19.70;99.90;;;;;;5015249;28;20381;-82
2021/09/04 09:37:03;;;;;;;1999.90;999.90;;;19.80;99.90;;;;;;5014802;28;20414;-82
2021/09/04 09:39:35;;;;;;;1999.90;999.90;;;19.90;99.90;;;;;;5017000;28;20407;-82
2021/09/04 09:42:02;;;;;;;1999.90;999.90;;;19.90;99.90;;;;;;5017042;28;20376;-82
2021/09/04 09:44:32;;;;;;;1999.90;999.90;;;20.00;99.90;;;;;;5017134;28;20408;-82
2021/09/04 09:47:03;;;;;;;1999.90;999.90;;;20.20;99.90;;;;;;5016537;28;20453;-82
2021/09/04 09:49:32;;;;;;;1999.90;999.90;;;20.30;99.90;;;;;;5015901;28;20444;-82
2021/09/04 09:52:04;;;;;;;1999.90;999.90;;;20.40;99.90;;;;;;5013884;28;20413;-81
2021/09/04 09:54:31;;;;;;;1999.90;999.90;;;20.50;99.90;;;;;;5011976;28;20817;-81
2021/09/04 09:57:02;;;;;;;1999.90;999.90;;;20.70;99.90;;;;;;5011965;28;20450;-81
2021/09/04 09:59:28;;;;;;;1999.90;999.90;;;20.80;99.90;;;;;;5013799;28;20789;-81
2021/09/04 10:01:55;;;;;;;1999.90;999.90;;;20.90;99.90;;;;;;5013768;28;20996;-81
2021/09/04 10:04:26;;;;;;;1999.90;999.90;;;21.00;99.90;;;;;;5012015;28;20444;-81
2021/09/04 10:06:52;;;;;;;1999.90;999.90;;;21.00;99.90;;;;;;5012325;28;20429;-81
2021/09/04 10:09:22;;;;;;;1999.90;999.90;;;21.10;99.90;;;;;;5012388;28;20445;-81
2021/09/04 10:11:48;;;;;;;1999.90;999.90;;;21.20;99.90;;;;;;5013194;28;20405;-81
2021/09/04 10:14:14;;;;;;;1999.90;999.90;;;21.40;99.90;;;;;;5013748;28;20814;-80
2021/09/04 10:16:40;;;;;;;1999.90;999.90;;;21.50;99.90;;;;;;5016303;28;20432;-80
2021/09/04 10:19:08;;;;;;;1999.90;999.90;;;21.70;99.90;;;;;;5016609;28;20418;-81
2021/09/04 10:21:38;;;;;;;1999.90;999.90;;;21.90;99.90;;;;;;5016656;28;20918;-80
2021/09/04 10:24:09;;;;;;;1999.90;999.90;;;22.00;99.90;;;;;;5016262;28;20770;-80
2021/09/04 10:26:39;;;;;;;1999.90;999.90;;;22.10;99.90;;;;;;5016525;28;20421;-80
2021/09/04 10:29:14;;;;;;;1999.90;999.90;;;22.20;99.90;;;;;;5016119;28;20452;-80
2021/09/04 10:32:01;;;;;;;1999.90;999.90;;;22.30;99.90;;;;;;5016514;28;20385;-80
2021/09/04 10:34:37;;;;;;;1999.90;999.90;;;22.40;99.90;;;;;;5016484;28;20424;-80
2021/09/04 10:37:08;;;;;;;1999.90;999.90;;;22.70;99.90;;;;;;5016634;28;20409;-80
2021/09/04 10:39:47;;;;;;;1999.90;999.90;;;22.80;99.90;;;;;;5016513;28;20388;-80
2021/09/04 10:42:18;;;;;;;1999.90;999.90;;;22.90;99.90;;;;;;5016524;28;20487;-80
2021/09/04 10:44:49;;;;;;;1999.90;999.90;;;23.10;99.90;;;;;;5016711;28;20903;-80
2021/09/04 10:47:17;;;;;;;1999.90;999.90;;;23.30;99.90;;;;;;5016591;28;20504;-80
2021/09/04 10:49:53;;;;;;;1999.90;999.90;;;23.50;99.90;;;;;;5016388;28;20442;-80
2021/09/04 10:55:46;;;;;;;1999.90;999.90;;;23.60;99.90;;;;;;5007404;28;20441;-80
2021/09/04 10:58:21;;;;;;;1999.90;999.90;;;23.80;99.90;;;;;;5015054;28;20953;-80
2021/09/04 11:00:51;;;;;;;1999.90;999.90;;;24.00;99.90;;;;;;5016104;28;20568;-80
2021/09/04 11:03:18;;;;;;;1999.90;999.90;;;24.00;99.90;;;;;;5016281;28;20425;-80
2021/09/04 11:05:51;;;;;;;1999.90;999.90;;;24.00;99.90;;;;;;5016694;28;20455;-80
2021/09/04 11:08:19;;;;;;;1999.90;999.90;;;24.10;99.90;;;;;;5015792;28;20440;-80
2021/09/04 11:10:47;;;;;;;1999.90;999.90;;;24.10;98.40;;;;;;5016101;28;20401;-80
2021/09/04 11:13:13;;;;;;;1999.90;999.90;;;24.20;97.30;;;;;;5014717;28;20432;-80
2021/09/04 11:15:48;;;;;;;1999.90;999.90;;;24.40;98.00;;;;;;5015787;28;20486;-80
2021/09/04 11:18:18;;;;;;;1999.90;999.90;;;24.50;99.90;;;;;;5016272;28;20153;-80
2021/09/04 11:20:52;;;;;;;1999.90;999.90;;;24.60;97.30;;;;;;5014739;28;20412;-80
2021/09/04 11:23:28;;;;;;;1999.90;999.90;;;24.70;97.50;;;;;;5015783;28;20467;-80
2021/09/04 11:25:55;;;;;;;1999.90;999.90;;;24.90;96.80;;;;;;5015499;28;20821;-80
2021/09/04 11:28:28;;;;;;;1999.90;999.90;;;24.80;91.30;;;;;;5015537;28;20534;-80
2021/09/04 11:30:54;;;;;;;1999.90;999.90;;;24.80;92.50;;;;;;5015832;28;20439;-80
2021/09/04 11:33:20;;;;;;;1999.90;999.90;;;25.00;89.50;;;;;;5015671;28;20452;-80
2021/09/04 11:35:46;;;;;;;1999.90;999.90;;;25.10;91.90;;;;;;5014246;28;20187;-80
2021/09/04 11:38:12;;;;;;;1999.90;999.90;;;25.30;92.10;;;;;;5014182;28;20178;-80
2021/09/04 11:40:44;;;;;;;1999.90;999.90;;;25.50;91.00;;;;;;5015726;28;20756;-80
2021/09/04 11:43:10;;;;;;;1999.90;999.90;;;25.50;88.10;;;;;;5015672;28;20153;-80
2021/09/04 11:45:36;;;;;;;1999.90;999.90;;;25.60;83.40;;;;;;5014319;28;20434;-80
2021/09/04 11:48:13;;;;;;;1999.90;999.90;;;25.70;82.30;;;;;;5015186;28;20950;-80
2021/09/04 11:50:40;;;;;;;1999.90;999.90;;;25.70;76.80;;;;;;5015685;28;20714;-80
2021/09/04 11:53:11;;;;;;;1999.90;999.90;;;25.80;81.20;;;;;;5013990;28;20447;-80
2021/09/04 11:55:37;;;;;;;1999.90;999.90;;;25.80;78.80;;;;;;5015181;28;20403;-80
2021/09/04 11:58:13;;;;;;;1999.90;999.90;;;25.90;78.40;;;;;;5015326;28;20403;-80
2021/09/04 12:00:42;;;;;;;1999.90;999.90;;;25.90;74.30;;;;;;5015535;28;20450;-80
2021/09/04 12:03:13;;;;;;;1999.90;999.90;;;26.00;69.20;;;;;;5015200;28;20398;-80
2021/09/04 12:05:40;;;;;;;1999.90;999.90;;;26.10;61.20;;;;;;5015217;28;20494;-80
2021/09/04 12:08:21;;;;;;;1999.90;999.90;;;26.10;67.80;;;;;;5013895;28;20464;-80
2021/09/04 12:10:47;;;;;;;1999.90;999.90;;;26.00;63.30;;;;;;5015042;28;20453;-80
2021/09/04 12:13:24;;;;;;;1999.90;999.90;;;25.80;59.40;;;;;;5015249;28;20407;-80
2021/09/04 12:15:59;;;;;;;1999.90;999.90;;;25.80;57.60;;;;;;5015203;28;20451;-80
2021/09/04 12:18:43;;;;;;;1999.90;999.90;;;25.80;68.40;;;;;;5014977;28;20390;-80
2021/09/04 12:21:27;;;;;;;1999.90;999.90;;;25.90;66.60;;;;;;5013772;28;20412;-80
2021/09/04 12:23:58;;;;;;;1999.90;999.90;;;26.10;56.40;;;;;;5013607;28;20551;-80
2021/09/04 12:26:24;;;;;;;1999.90;999.90;;;26.10;53.00;;;;;;5014648;28;20471;-80
2021/09/04 12:29:03;;;;;;;1999.90;999.90;;;26.20;53.80;;;;;;5014625;28;20554;-80
2021/09/04 12:31:29;;;;;;;1999.90;999.90;;;26.30;54.00;;;;;;5014692;28;20543;-80
2021/09/04 12:33:57;;;;;;;1999.90;999.90;;;26.20;54.20;;;;;;5013403;28;20778;-80
2021/09/04 12:36:29;;;;;;;1999.90;999.90;;;26.30;52.60;;;;;;5012814;28;20793;-80
2021/09/04 12:38:57;;;;;;;1999.90;999.90;;;26.30;49.30;;;;;;5015073;28;20915;-80
2021/09/04 12:41:31;;;;;;;1999.90;999.90;;;26.30;54.30;;;;;;5014782;28;20499;-80
2021/09/04 12:44:01;;;;;;;1999.90;999.90;;;26.50;50.30;;;;;;5013747;28;20444;-80
2021/09/04 12:46:36;;;;;;;1999.90;999.90;;;26.30;51.80;;;;;;5014400;28;20435;-81
2021/09/04 12:49:25;;;;;;;1999.90;999.90;;;26.30;49.00;;;;;;5013304;28;20919;-80
2021/09/04 12:52:13;;;;;;;1999.90;999.90;;;26.30;44.80;;;;;;5014530;28;20389;-80
2021/09/04 12:54:52;;;;;;;1999.90;999.90;;;26.20;41.90;;;;;;5014466;28;20423;-80
2021/09/04 12:57:25;;;;;;;1999.90;999.90;;;26.20;51.80;;;;;;5013112;28;20788;-80
2021/09/04 12:59:54;;;;;;;1999.90;999.90;;;26.20;46.90;;;;;;5014430;28;20408;-80
2021/09/04 13:02:24;;;;;;;1999.90;999.90;;;26.10;45.70;;;;;;5014292;28;20411;-80
2021/09/04 13:04:59;;;;;;;1999.90;999.90;;;26.00;45.40;;;;;;5013275;28;20408;-80
2021/09/04 13:07:25;;;;;;;1999.90;999.90;;;26.00;45.70;;;;;;5012407;28;20439;-80
2021/09/04 13:09:51;;;;;;;1999.90;999.90;;;26.00;47.30;;;;;;5013425;28;20546;-80
2021/09/04 13:12:17;;;;;;;1999.90;999.90;;;26.00;51.50;;;;;;5013466;28;20555;-80
2021/09/04 13:14:43;;;;;;;1999.90;999.90;;;26.10;50.70;;;;;;5013996;28;20180;-80
2021/09/04 13:17:10;;;;;;;1999.90;999.90;;;26.10;58.00;;;;;;5012075;28;20247;-80
2021/09/04 13:19:39;;;;;;;1999.90;999.90;;;26.30;54.10;;;;;;5013764;28;20444;-80
2021/09/04 13:22:05;;;;;;;1999.90;999.90;;;26.40;56.60;;;;;;5012105;28;20456;-80
2021/09/04 13:24:31;;;;;;;1999.90;999.90;;;26.40;58.00;;;;;;5013432;28;20447;-80
2021/09/04 13:26:56;;;;;;;1999.90;999.90;;;26.50;55.20;;;;;;5013338;28;20793;-80
2021/09/04 13:29:22;;;;;;;1999.90;999.90;;;26.40;51.40;;;;;;5011959;28;20473;-80
2021/09/04 13:31:48;;;;;;;1999.90;999.90;;;26.20;50.30;;;;;;5011963;28;20200;-80
2021/09/04 13:34:18;;;;;;;1999.90;999.90;;;25.90;53.60;;;;;;5013274;28;20177;-80